Time;durP1;ratioP1;P1;durP2;ratioP2;P2;SDS_P1;SDS_P2;PMS_P1;PMS_P2;Temp;Humidity;BMP_temperature;BMP_pressure;BME280_temperature;BME280_humidity;BME280_pressure;Samples;Min_cycle;Max_cycle;Signal;HPM_P1;HPM_P2
2023/08/08 00:00:27;;;;;;;0.60;0.40;;;;;;;22.99;59.40;94858.34;5111521;28;20530;-59
2023/08/08 00:02:56;;;;;;;0.40;0.20;;;;;;;23.12;59.03;94856.25;5112840;28;20508;-59
2023/08/08 00:05:24;;;;;;;0.60;0.50;;;;;;;23.05;59.64;94856.91;5111267;28;20478;-58
2023/08/08 00:07:52;;;;;;;0.50;0.30;;;;;;;22.92;59.03;94860.91;5113134;28;20976;-58
2023/08/08 00:10:22;;;;;;;2.30;0.43;;;;;;;22.58;59.49;94853.66;5107587;28;20459;-58
2023/08/08 00:12:51;;;;;;;0.50;0.50;;;;;;;22.68;59.91;94856.59;5105165;28;20957;-58
2023/08/08 00:15:19;;;;;;;0.40;0.30;;;;;;;22.40;60.88;94855.22;5111954;28;20464;-59
2023/08/08 00:17:47;;;;;;;0.40;0.30;;;;;;;22.45;61.22;94853.03;5112754;28;20436;-59
2023/08/08 00:20:16;;;;;;;0.50;0.30;;;;;;;22.47;61.29;94858.84;5112422;28;20440;-58
2023/08/08 00:22:44;;;;;;;0.40;0.27;;;;;;;22.75;61.45;94855.94;5111727;28;20842;-57
2023/08/08 00:25:13;;;;;;;0.40;0.30;;;;;;;22.59;60.20;94866.03;5110935;28;20447;-59
2023/08/08 00:27:43;;;;;;;0.50;0.30;;;;;;;22.62;61.03;94868.81;5111325;28;20536;-58
2023/08/08 00:30:13;;;;;;;0.60;0.50;;;;;;;22.41;61.95;94873.00;5112553;28;20934;-58
2023/08/08 00:32:41;;;;;;;0.40;0.30;;;;;;;22.23;60.84;94866.44;5111144;28;21009;-58
2023/08/08 00:35:10;;;;;;;0.70;0.50;;;;;;;22.21;62.57;94872.19;5111059;28;20531;-58
2023/08/08 00:37:39;;;;;;;0.50;0.30;;;;;;;22.14;61.41;94869.31;5110751;28;20504;-58
2023/08/08 00:40:08;;;;;;;0.40;0.20;;;;;;;22.27;62.29;94876.16;5111461;28;20459;-58
2023/08/08 00:42:37;;;;;;;0.40;0.30;;;;;;;22.25;62.17;94872.25;5112098;28;20447;-59
2023/08/08 00:45:08;;;;;;;0.50;0.30;;;;;;;21.91;61.86;94877.31;5112725;27;20440;-59
2023/08/08 00:47:36;;;;;;;0.50;0.40;;;;;;;21.72;62.63;94879.91;5111819;28;20479;-59
2023/08/08 00:50:06;;;;;;;0.50;0.33;;;;;;;21.68;63.77;94870.94;5111024;28;20526;-59
2023/08/08 00:52:35;;;;;;;0.50;0.30;;;;;;;21.87;62.90;94881.06;5111414;28;20519;-59
2023/08/08 00:55:04;;;;;;;0.40;0.30;;;;;;;21.84;62.91;94882.50;5111573;28;21010;-59
2023/08/08 00:57:34;;;;;;;0.40;0.20;;;;;;;22.28;63.50;94885.06;5111537;28;20845;-59
2023/08/08 01:00:04;;;;;;;0.50;0.30;;;;;;;22.24;62.44;94887.66;5111723;28;20436;-59
2023/08/08 01:02:33;;;;;;;0.40;0.20;;;;;;;22.56;61.78;94878.34;5112267;28;20492;-59
2023/08/08 01:05:03;;;;;;;0.43;0.30;;;;;;;22.63;63.42;94883.91;5111674;28;20443;-59
2023/08/08 01:07:48;;;;;;;2.20;0.20;;;;;;;22.73;61.38;94887.94;5111720;28;20472;-59
2023/08/08 01:10:21;;;;;;;0.40;0.30;;;;;;;22.25;63.53;94891.94;5111042;27;20438;-59
2023/08/08 01:12:56;;;;;;;0.50;0.33;;;;;;;21.79;65.35;94895.47;5111362;28;20458;-60
2023/08/08 01:15:25;;;;;;;0.50;0.40;;;;;;;21.46;67.45;94901.22;5083618;28;20440;-60
2023/08/08 01:17:56;;;;;;;0.40;0.30;;;;;;;21.54;68.05;94905.69;5111371;28;20534;-60
2023/08/08 01:20:26;;;;;;;0.50;0.30;;;;;;;22.17;66.99;94897.53;5099266;28;20439;-60
2023/08/08 01:23:04;;;;;;;0.47;0.30;;;;;;;21.98;67.02;94899.06;5111881;28;20439;-60
2023/08/08 01:25:35;;;;;;;0.40;0.30;;;;;;;22.15;66.71;94906.00;5111887;28;20454;-60
2023/08/08 01:28:05;;;;;;;0.50;0.30;;;;;;;22.52;65.87;94904.47;5111299;28;20468;-60
2023/08/08 01:30:33;;;;;;;0.87;0.87;;;;;;;22.27;65.74;94907.78;5111402;28;21092;-60
2023/08/08 01:33:01;;;;;;;0.50;0.40;;;;;;;21.95;66.97;94904.38;5110494;28;20440;-60
2023/08/08 01:35:35;;;;;;;0.40;0.30;;;;;;;22.15;67.85;94914.09;5110692;28;20538;-60
2023/08/08 01:38:11;;;;;;;1.37;0.30;;;;;;;22.03;68.19;94912.28;5111155;28;20439;-61
2023/08/08 01:40:44;;;;;;;0.50;0.40;;;;;;;22.29;67.64;94917.09;5111333;28;20520;-60
2023/08/08 01:43:14;;;;;;;0.43;0.27;;;;;;;22.31;66.92;94912.16;5111649;28;20523;-61
2023/08/08 01:45:43;;;;;;;0.40;0.20;;;;;;;22.57;65.91;94898.00;5111143;28;20940;-61
2023/08/08 01:48:12;;;;;;;0.40;0.20;;;;;;;22.73;65.71;94888.75;5110818;28;20495;-61
2023/08/08 01:50:41;;;;;;;0.40;0.30;;;;;;;22.89;65.14;94893.28;5111543;28;20442;-60
2023/08/08 01:53:09;;;;;;;0.50;0.30;;;;;;;22.72;64.70;94895.28;5111189;28;20485;-61
2023/08/08 01:55:38;;;;;;;0.40;0.20;;;;;;;22.79;63.63;94896.56;5110432;28;20478;-61
2023/08/08 01:58:08;;;;;;;0.50;0.40;;;;;;;22.34;66.10;94900.63;5110532;28;20447;-60
2023/08/08 02:00:37;;;;;;;0.57;0.30;;;;;;;22.28;66.43;94904.75;5110932;28;20444;-60
2023/08/08 02:03:05;;;;;;;0.50;0.30;;;;;;;22.40;66.38;94910.00;5111782;28;20446;-60
2023/08/08 02:05:36;;;;;;;0.40;0.20;;;;;;;22.52;66.47;94901.78;5111027;28;20526;-60
2023/08/08 02:08:06;;;;;;;0.40;0.30;;;;;;;22.69;65.77;94909.47;5110108;28;21030;-60
2023/08/08 02:10:34;;;;;;;0.40;0.30;;;;;;;22.65;66.26;94899.75;5084664;28;20523;-60
2023/08/08 02:13:02;;;;;;;0.50;0.30;;;;;;;22.70;66.20;94910.28;5109858;28;20493;-60
2023/08/08 02:15:32;;;;;;;0.50;0.30;;;;;;;22.54;65.71;94904.91;5103109;28;20459;-59
2023/08/08 02:18:02;;;;;;;0.50;0.40;;;;;;;22.51;64.26;94916.44;5106249;28;20520;-59
2023/08/08 02:20:30;;;;;;;0.50;0.30;;;;;;;22.58;65.68;94918.50;5111169;28;20432;-59
2023/08/08 02:22:59;;;;;;;0.60;0.30;;;;;;;22.68;65.59;94907.16;5097536;28;20806;-59
2023/08/08 02:25:27;;;;;;;0.50;0.30;;;;;;;22.71;63.82;94920.75;5110720;28;20780;-59
2023/08/08 02:27:56;;;;;;;0.40;0.30;;;;;;;22.66;63.62;94931.84;5110131;28;20467;-59
2023/08/08 02:30:24;;;;;;;0.43;0.30;;;;;;;22.57;64.82;94889.91;5110115;28;20435;-59
2023/08/08 02:32:54;;;;;;;0.60;0.40;;;;;;;23.07;63.77;94940.38;5110937;28;20807;-58
2023/08/08 02:35:22;;;;;;;0.40;0.20;;;;;;;22.83;62.97;94941.41;5111006;28;20961;-58
2023/08/08 02:37:50;;;;;;;0.50;0.30;;;;;;;22.77;62.95;94955.59;5110499;28;20830;-58
2023/08/08 02:40:19;;;;;;;0.40;0.30;;;;;;;22.67;63.05;94946.09;5110782;28;20439;-59
2023/08/08 02:42:47;;;;;;;0.40;0.40;;;;;;;22.52;62.83;94947.69;5110091;28;20471;-59
2023/08/08 02:45:16;;;;;;;0.60;0.50;;;;;;;22.54;63.33;94958.16;5110996;28;20432;-59
2023/08/08 02:47:44;;;;;;;0.70;0.70;;;;;;;22.31;64.22;94952.66;5110751;28;20439;-58
2023/08/08 02:50:14;;;;;;;0.80;0.77;;;;;;;22.38;64.97;94947.41;5113503;28;20442;-59
2023/08/08 02:52:42;;;;;;;0.50;0.30;;;;;;;22.64;64.63;94963.03;5084205;28;20452;-58
2023/08/08 02:55:10;;;;;;;1.13;0.40;;;;;;;22.38;65.06;94966.28;5108144;28;20509;-59
2023/08/08 02:57:39;;;;;;;0.60;0.57;;;;;;;22.31;65.48;94971.53;5114100;28;20823;-57
2023/08/08 03:00:09;;;;;;;0.57;0.47;;;;;;;22.45;66.04;94965.66;5113964;28;20440;-58
2023/08/08 03:02:37;;;;;;;2.00;0.40;;;;;;;22.54;65.76;94969.72;5114295;28;20444;-57
2023/08/08 03:05:07;;;;;;;0.50;0.47;;;;;;;22.64;66.15;94981.94;5112968;28;20443;-58
2023/08/08 03:07:36;;;;;;;0.40;0.30;;;;;;;22.74;66.27;94984.84;5114217;28;20440;-58
2023/08/08 03:10:06;;;;;;;0.40;0.30;;;;;;;22.75;66.78;94991.84;5113745;28;20524;-58
2023/08/08 03:12:34;;;;;;;0.50;0.30;;;;;;;22.94;66.64;94995.69;5113465;28;20485;-59
2023/08/08 03:15:03;;;;;;;0.47;0.40;;;;;;;22.68;67.00;94988.19;5111739;28;20432;-58
2023/08/08 03:17:31;;;;;;;0.60;0.57;;;;;;;22.60;68.77;94987.22;5112494;28;20444;-58
2023/08/08 03:19:59;;;;;;;0.40;0.30;;;;;;;22.69;68.78;94987.84;5099771;28;20431;-58
2023/08/08 03:22:28;;;;;;;0.87;0.87;;;;;;;22.59;68.94;94987.59;5113517;27;20560;-58
2023/08/08 03:24:58;;;;;;;0.60;0.50;;;;;;;22.47;69.57;94991.19;5112801;28;20941;-58
2023/08/08 03:27:26;;;;;;;0.43;0.30;;;;;;;22.30;70.26;94991.56;5113119;28;20439;-58
2023/08/08 03:29:55;;;;;;;3.63;0.70;;;;;;;21.88;71.63;94988.63;5112820;28;20479;-59
2023/08/08 03:32:23;;;;;;;0.50;0.30;;;;;;;22.00;72.53;94995.88;5113835;28;20937;-58
2023/08/08 03:34:51;;;;;;;0.50;0.40;;;;;;;22.07;73.01;95004.13;5111995;28;20439;-58
2023/08/08 03:37:20;;;;;;;1.33;1.10;;;;;;;22.06;72.56;95006.03;5112446;28;20941;-57
2023/08/08 03:39:48;;;;;;;0.53;0.40;;;;;;;22.25;71.65;95018.03;5086005;28;20512;-58
2023/08/08 03:42:18;;;;;;;2.10;0.53;;;;;;;22.25;71.34;95021.53;5113186;28;20471;-57
2023/08/08 03:44:46;;;;;;;0.50;0.37;;;;;;;22.37;71.04;95026.03;5112786;28;20493;-58
2023/08/08 03:47:15;;;;;;;0.50;0.30;;;;;;;22.71;69.98;95020.72;5111773;28;20940;-58
2023/08/08 03:49:47;;;;;;;0.40;0.30;;;;;;;23.00;68.82;95024.78;5113140;28;21054;-58
2023/08/08 03:52:17;;;;;;;0.93;0.40;;;;;;;23.14;67.99;95029.72;5112618;28;20897;-58
2023/08/08 03:54:45;;;;;;;0.40;0.30;;;;;;;23.26;67.18;95029.56;5113540;27;20534;-58
2023/08/08 03:57:14;;;;;;;2.00;0.40;;;;;;;23.28;67.11;95024.56;5113150;28;20440;-57
2023/08/08 03:59:44;;;;;;;0.50;0.30;;;;;;;23.19;66.76;95032.13;5113860;28;20439;-58
2023/08/08 04:02:13;;;;;;;0.53;0.40;;;;;;;23.09;67.87;95038.09;5112707;28;20964;-58
2023/08/08 04:04:41;;;;;;;0.40;0.30;;;;;;;23.01;67.14;95036.38;5112574;28;20440;-58
2023/08/08 04:07:10;;;;;;;0.40;0.30;;;;;;;22.82;68.36;95039.06;5112864;27;20458;-57
2023/08/08 04:09:38;;;;;;;0.60;0.40;;;;;;;22.85;68.88;95041.84;5112835;28;20528;-58
2023/08/08 04:12:07;;;;;;;0.60;0.30;;;;;;;22.44;68.53;95045.88;5111425;28;20446;-59
2023/08/08 04:14:35;;;;;;;0.50;0.40;;;;;;;22.39;68.90;95035.34;5112915;27;20440;-57
2023/08/08 04:17:05;;;;;;;0.50;0.40;;;;;;;22.37;70.58;95064.63;5086666;28;20504;-58
2023/08/08 04:19:34;;;;;;;0.40;0.30;;;;;;;22.46;71.43;95046.34;5112553;28;20519;-59
2023/08/08 04:22:02;;;;;;;0.50;0.50;;;;;;;22.53;70.05;95045.72;5112573;28;20436;-59
2023/08/08 04:24:30;;;;;;;0.40;0.30;;;;;;;22.26;72.27;95050.13;5112965;28;20523;-58
2023/08/08 04:26:59;;;;;;;0.40;0.20;;;;;;;22.32;72.07;95061.41;5113157;28;20500;-58
2023/08/08 04:29:27;;;;;;;0.47;0.33;;;;;;;22.06;73.12;95068.13;5112168;28;20953;-58
2023/08/08 04:31:55;;;;;;;0.97;0.40;;;;;;;21.69;74.63;95063.25;5110965;28;20439;-56
2023/08/08 04:34:25;;;;;;;0.40;0.30;;;;;;;21.82;75.96;95065.53;5111079;28;20436;-57
2023/08/08 04:36:53;;;;;;;1.40;0.80;;;;;;;21.81;75.61;95073.97;5111324;28;20661;-58
2023/08/08 04:39:22;;;;;;;0.70;0.50;;;;;;;21.95;75.78;95066.28;5112182;27;20501;-57
2023/08/08 04:41:50;;;;;;;1.57;0.40;;;;;;;21.98;76.22;95069.09;5112704;28;20455;-59
2023/08/08 04:44:18;;;;;;;0.60;0.50;;;;;;;22.15;75.00;95070.66;5111035;28;20440;-57
2023/08/08 04:46:47;;;;;;;0.50;0.40;;;;;;;22.24;74.54;95078.59;5111296;28;20447;-57
2023/08/08 04:49:15;;;;;;;0.97;0.50;;;;;;;22.61;72.92;95086.06;5106645;28;20488;-57
2023/08/08 04:51:45;;;;;;;0.47;0.37;;;;;;;22.54;72.38;95080.47;5103414;28;20439;-59
2023/08/08 04:54:13;;;;;;;0.63;0.63;;;;;;;22.12;73.21;95095.63;5110614;28;20475;-59
2023/08/08 04:56:42;;;;;;;0.50;0.30;;;;;;;21.96;74.11;95090.22;5112146;28;20941;-60
2023/08/08 04:59:10;;;;;;;0.73;0.50;;;;;;;21.85;75.18;95097.25;5109999;28;20435;-59
2023/08/08 05:01:38;;;;;;;0.50;0.40;;;;;;;21.81;75.08;95098.25;5111387;28;20457;-60
2023/08/08 05:04:07;;;;;;;0.50;0.30;;;;;;;22.09;74.44;95109.81;5085288;28;20493;-60
2023/08/08 05:06:35;;;;;;;0.63;0.40;;;;;;;22.03;73.96;95100.44;5111666;28;20964;-58
2023/08/08 05:09:05;;;;;;;2.47;1.13;;;;;;;22.42;73.93;95112.97;5111795;28;20447;-59
2023/08/08 05:11:33;;;;;;;0.50;0.40;;;;;;;22.23;72.54;95110.19;5111598;28;20439;-58
2023/08/08 05:14:02;;;;;;;1.60;0.40;;;;;;;22.07;74.79;95115.56;5112213;28;20523;-59
2023/08/08 05:16:30;;;;;;;0.67;0.47;;;;;;;21.80;74.89;95105.59;5112112;28;20444;-59
2023/08/08 05:18:58;;;;;;;0.50;0.30;;;;;;;21.88;76.64;95125.47;5111899;28;20804;-59
2023/08/08 05:21:27;;;;;;;0.50;0.30;;;;;;;22.23;75.78;95122.91;5112247;28;20436;-59
2023/08/08 05:23:55;;;;;;;0.70;0.50;;;;;;;21.95;76.35;95139.16;5111909;28;20496;-61
2023/08/08 05:26:25;;;;;;;0.50;0.40;;;;;;;21.94;76.89;95154.56;5111543;27;20435;-58
2023/08/08 05:28:53;;;;;;;0.50;0.40;;;;;;;21.97;76.80;95147.69;5111697;28;20432;-59
2023/08/08 05:31:22;;;;;;;0.50;0.40;;;;;;;22.04;75.85;95153.25;5112047;28;20472;-60
2023/08/08 05:33:50;;;;;;;1.33;1.23;;;;;;;21.95;75.78;95153.44;5112013;28;20964;-59
2023/08/08 05:36:19;;;;;;;0.60;0.60;;;;;;;22.27;75.00;95158.88;5111215;28;20448;-59
2023/08/08 05:38:47;;;;;;;0.50;0.30;;;;;;;22.02;75.57;95167.13;5111336;28;20523;-60
2023/08/08 05:41:15;;;;;;;0.50;0.30;;;;;;;21.98;75.76;95160.84;5111903;28;20444;-60
2023/08/08 05:43:45;;;;;;;0.57;0.57;;;;;;;21.95;75.23;95164.22;5111346;28;20448;-59
2023/08/08 05:46:13;;;;;;;0.67;0.57;;;;;;;22.01;74.90;95159.38;5111552;28;20451;-59
2023/08/08 05:48:41;;;;;;;0.40;0.30;;;;;;;21.93;75.48;95163.00;5111229;28;20479;-58
2023/08/08 05:51:10;;;;;;;0.50;0.30;;;;;;;21.85;74.44;95140.44;5111378;28;20510;-60
2023/08/08 05:53:38;;;;;;;0.60;0.50;;;;;;;22.16;75.25;95164.03;5111227;28;20473;-58
2023/08/08 05:56:08;;;;;;;1.83;0.90;;;;;;;22.33;74.42;95163.69;5111367;28;20439;-59
2023/08/08 05:58:37;;;;;;;0.50;0.30;;;;;;;22.48;72.70;95165.63;5110987;28;20448;-57
2023/08/08 06:01:11;;;;;;;0.40;0.27;;;;;;;22.69;72.67;95168.84;5111449;28;20444;-59
2023/08/08 06:03:40;;;;;;;0.40;0.30;;;;;;;22.32;72.96;95167.50;5111096;28;20454;-58
2023/08/08 06:06:08;;;;;;;1.37;0.40;;;;;;;22.73;71.48;95177.84;5111459;28;20445;-57
2023/08/08 06:08:37;;;;;;;0.50;0.30;;;;;;;23.28;69.82;95176.81;5111328;28;20451;-57
2023/08/08 06:11:05;;;;;;;0.70;0.30;;;;;;;23.20;68.46;95177.00;5111181;28;20575;-57
2023/08/08 06:13:36;;;;;;;0.40;0.30;;;;;;;23.31;68.02;95178.03;5111398;28;20822;-57
2023/08/08 06:16:08;;;;;;;4.40;0.30;;;;;;;23.56;66.34;95168.56;5111496;28;20446;-58
2023/08/08 06:18:37;;;;;;;0.73;0.73;;;;;;;23.10;66.78;95172.91;5111168;28;20516;-57
2023/08/08 06:21:05;;;;;;;0.40;0.30;;;;;;;23.48;65.80;95169.53;5111111;28;20500;-57
2023/08/08 06:23:33;;;;;;;0.40;0.30;;;;;;;23.44;65.72;95170.59;5086896;28;20957;-57
2023/08/08 06:26:02;;;;;;;0.60;0.30;;;;;;;23.76;65.76;95166.63;5115113;28;20488;-52
2023/08/08 06:28:31;;;;;;;0.60;0.50;;;;;;;23.87;65.13;95171.13;5114848;28;20449;-51
2023/08/08 06:30:59;;;;;;;0.70;0.70;;;;;;;24.08;67.67;95180.84;5115198;27;20475;-52
2023/08/08 06:33:29;;;;;;;0.40;0.20;;;;;;;24.43;63.86;95174.16;5103813;28;20987;-53
2023/08/08 06:35:58;;;;;;;0.40;0.30;;;;;;;24.75;63.34;95171.97;5113049;28;20453;-55
2023/08/08 06:38:26;;;;;;;0.70;0.70;;;;;;;24.49;64.03;95180.81;5104165;28;20513;-55
2023/08/08 06:40:55;;;;;;;0.43;0.27;;;;;;;24.49;63.58;95183.53;5115357;28;20522;-55
2023/08/08 06:43:24;;;;;;;0.57;0.50;;;;;;;24.11;63.92;95190.97;5114889;28;20958;-55
2023/08/08 06:45:54;;;;;;;0.50;0.40;;;;;;;23.86;63.42;95191.22;5114608;28;20432;-54
2023/08/08 06:48:22;;;;;;;0.43;0.27;;;;;;;24.10;63.82;95200.22;5114801;28;21032;-54
2023/08/08 06:50:52;;;;;;;0.40;0.30;;;;;;;24.46;63.10;95202.47;5114499;28;20555;-54
2023/08/08 06:53:20;;;;;;;0.50;0.30;;;;;;;24.62;63.03;95205.81;5115109;28;20516;-54
2023/08/08 06:55:49;;;;;;;0.50;0.30;;;;;;;24.05;62.68;95205.88;5114411;28;20807;-54
2023/08/08 06:58:17;;;;;;;1.00;0.63;;;;;;;23.53;64.83;95207.13;5114565;28;20484;-54
2023/08/08 07:00:46;;;;;;;0.50;0.40;;;;;;;23.54;64.04;95211.41;5114864;28;20469;-54
2023/08/08 07:03:14;;;;;;;3.03;0.40;;;;;;;23.82;64.61;95220.13;5114609;28;20956;-55
2023/08/08 07:05:43;;;;;;;0.40;0.27;;;;;;;23.77;64.02;95208.81;5114362;28;20916;-54
2023/08/08 07:08:13;;;;;;;0.63;0.60;;;;;;;23.91;64.43;95209.09;5113936;27;20453;-55
2023/08/08 07:10:41;;;;;;;0.40;0.30;;;;;;;24.16;62.75;95210.38;5114432;28;20885;-57
2023/08/08 07:13:09;;;;;;;0.40;0.30;;;;;;;24.73;63.10;95214.94;5114420;28;20450;-47
2023/08/08 07:15:38;;;;;;;0.40;0.20;;;;;;;24.99;62.66;95214.22;5114294;28;20436;-47
2023/08/08 07:18:07;;;;;;;0.40;0.30;;;;;;;25.00;60.65;95216.56;5114081;28;20446;-46
2023/08/08 07:20:35;;;;;;;0.50;0.30;;;;;;;25.18;60.80;95212.22;5114529;28;20431;-47
2023/08/08 07:23:04;;;;;;;0.60;0.30;;;;;;;25.11;59.49;95212.13;5114039;28;20444;-48
2023/08/08 07:25:34;;;;;;;0.40;0.30;;;;;;;25.60;59.21;95209.34;5114098;28;20448;-47
2023/08/08 07:28:04;;;;;;;0.40;0.30;;;;;;;25.51;58.46;95213.50;5113774;28;20439;-46
2023/08/08 07:30:33;;;;;;;0.40;0.30;;;;;;;25.21;58.40;95192.50;5113988;28;20995;-48
2023/08/08 07:33:01;;;;;;;0.40;0.20;;;;;;;25.93;57.89;95224.94;5114065;28;20461;-49
2023/08/08 07:35:29;;;;;;;0.60;0.50;;;;;;;25.96;55.80;95218.75;5113517;28;20530;-48
2023/08/08 07:37:58;;;;;;;0.50;0.30;;;;;;;26.94;54.50;95213.63;5113613;28;20526;-48
2023/08/08 07:40:26;;;;;;;0.40;0.30;;;;;;;26.24;55.49;95205.53;5113477;28;20478;-48
2023/08/08 07:42:56;;;;;;;0.40;0.40;;;;;;;26.69;54.18;95217.28;5113362;28;20447;-49
2023/08/08 07:45:25;;;;;;;0.40;0.40;;;;;;;26.65;52.84;95219.97;5113634;28;20471;-50
2023/08/08 07:47:53;;;;;;;0.40;0.30;;;;;;;27.34;53.35;95206.56;5106443;28;20856;-50
2023/08/08 07:50:22;;;;;;;0.50;0.47;;;;;;;27.53;52.01;95212.56;5107289;28;20520;-48
2023/08/08 07:52:51;;;;;;;0.60;0.30;;;;;;;27.50;51.39;95207.88;5113836;28;20508;-48
2023/08/08 07:55:19;;;;;;;0.37;0.30;;;;;;;27.73;51.75;95207.63;5113244;28;20440;-48
2023/08/08 07:57:48;;;;;;;0.53;0.50;;;;;;;27.55;50.68;95223.09;5113548;28;20436;-48
2023/08/08 08:00:20;;;;;;;1.07;0.40;;;;;;;27.23;51.29;95219.31;5113244;28;20526;-51
2023/08/08 08:02:48;;;;;;;0.87;0.40;;;;;;;27.66;49.13;95213.81;5113554;28;20489;-49
2023/08/08 08:05:18;;;;;;;0.30;0.20;;;;;;;27.66;49.83;95219.25;5113260;28;20466;-49
2023/08/08 08:07:46;;;;;;;0.40;0.30;;;;;;;27.60;50.24;95223.50;5113050;28;20444;-49
2023/08/08 08:10:15;;;;;;;0.50;0.40;;;;;;;27.36;50.48;95221.38;5112155;28;20824;-49
2023/08/08 08:12:43;;;;;;;0.50;0.40;;;;;;;27.38;49.68;95210.88;5112308;28;20479;-54
2023/08/08 08:15:12;;;;;;;0.30;0.20;;;;;;;27.79;49.21;95214.28;5112980;28;20467;-51
2023/08/08 08:17:42;;;;;;;0.60;0.40;;;;;;;27.11;47.47;95214.97;5113077;28;20899;-59
2023/08/08 08:20:12;;;;;;;0.40;0.40;;;;;;;27.00;48.70;95217.59;5099328;28;20566;-53
2023/08/08 08:22:40;;;;;;;0.40;0.30;;;;;;;27.17;48.61;95178.09;5113053;28;20439;-54
2023/08/08 08:25:09;;;;;;;0.50;0.50;;;;;;;28.00;48.32;95208.16;5113198;28;20462;-54
2023/08/08 08:27:37;;;;;;;0.40;0.30;;;;;;;27.77;47.17;95204.91;5113313;27;20492;-54
2023/08/08 08:30:09;;;;;;;0.43;0.40;;;;;;;27.51;48.00;95132.44;5086330;28;20500;-56
2023/08/08 08:32:38;;;;;;;0.40;0.40;;;;;;;27.87;48.35;95201.47;5112297;28;20597;-55
2023/08/08 08:35:09;;;;;;;0.47;0.47;;;;;;;28.63;48.73;95202.97;5112705;28;20443;-53
2023/08/08 08:37:37;;;;;;;0.80;0.40;;;;;;;29.33;47.09;95195.97;5111983;28;20439;-54
2023/08/08 08:40:07;;;;;;;0.50;0.40;;;;;;;29.94;45.13;95192.75;5112483;28;20526;-54
2023/08/08 08:42:36;;;;;;;0.40;0.40;;;;;;;29.09;46.63;95188.56;5112581;28;20519;-54
2023/08/08 08:45:07;;;;;;;0.40;0.30;;;;;;;29.85;45.43;95189.69;5112316;28;20446;-49
2023/08/08 08:47:37;;;;;;;0.37;0.30;;;;;;;30.21;45.30;95184.81;5112428;28;20925;-49
2023/08/08 08:50:08;;;;;;;0.40;0.30;;;;;;;31.19;44.08;95186.22;5112078;28;20447;-49
2023/08/08 08:52:37;;;;;;;0.40;0.30;;;;;;;31.48;42.46;95183.22;5112309;28;20487;-50
2023/08/08 08:55:06;;;;;;;1.63;0.33;;;;;;;30.71;42.63;95185.38;5112749;28;20438;-51
2023/08/08 08:57:37;;;;;;;0.30;0.30;;;;;;;30.84;44.01;95185.69;5112105;28;20993;-57
2023/08/08 09:00:07;;;;;;;0.50;0.30;;;;;;;30.02;43.22;95186.09;5103784;28;20463;-56
2023/08/08 09:02:35;;;;;;;0.40;0.30;;;;;;;29.51;44.17;95186.59;5112798;28;20432;-57
2023/08/08 09:05:05;;;;;;;0.37;0.30;;;;;;;29.28;45.50;95190.91;5110546;28;21150;-56
2023/08/08 09:07:36;;;;;;;0.40;0.30;;;;;;;30.13;42.70;95181.34;5105045;28;20431;-57
2023/08/08 09:10:06;;;;;;;0.33;0.30;;;;;;;30.21;43.46;95162.94;5107049;28;20439;-57
2023/08/08 09:12:36;;;;;;;0.40;0.40;;;;;;;30.13;39.74;95175.13;5111092;28;20475;-50
2023/08/08 09:15:05;;;;;;;0.40;0.30;;;;;;;31.02;39.52;95181.63;5110695;28;20496;-49
2023/08/08 09:17:34;;;;;;;0.40;0.30;;;;;;;31.64;38.56;95176.03;5102735;27;20435;-48
2023/08/08 09:20:15;;;;;;;0.30;0.20;;;;;;;32.54;36.43;95172.59;5111322;28;20431;-48
2023/08/08 09:22:45;;;;;;;0.30;0.20;;;;;;;33.34;34.96;95160.78;5110285;28;20450;-48
2023/08/08 09:25:14;;;;;;;0.40;0.30;;;;;;;32.27;35.71;95166.28;5111139;28;20439;-49
2023/08/08 09:27:42;;;;;;;0.30;0.30;;;;;;;31.92;36.86;95159.25;5111603;28;20949;-49
2023/08/08 09:30:12;;;;;;;0.40;0.30;;;;;;;32.51;34.17;95148.72;5111941;28;20442;-49
2023/08/08 09:32:40;;;;;;;0.37;0.20;;;;;;;32.70;33.55;95152.78;5111451;28;20466;-49
2023/08/08 09:35:10;;;;;;;0.40;0.30;;;;;;;33.26;36.12;95148.38;5111787;28;20521;-48
2023/08/08 09:37:39;;;;;;;0.40;0.20;;;;;;;33.81;32.99;95154.03;5111921;28;20848;-49
2023/08/08 09:40:11;;;;;;;0.40;0.30;;;;;;;33.81;34.36;95153.25;5109910;28;20443;-49
2023/08/08 09:42:41;;;;;;;0.37;0.27;;;;;;;33.84;32.70;95155.97;5110085;28;20443;-49
2023/08/08 09:45:11;;;;;;;0.40;0.30;;;;;;;33.57;32.20;95133.31;5101173;28;20841;-49
2023/08/08 09:47:39;;;;;;;0.40;0.30;;;;;;;33.26;31.80;95115.41;5108315;28;20492;-49
2023/08/08 09:50:09;;;;;;;0.40;0.30;;;;;;;33.39;32.60;95138.34;5110461;28;20470;-50
2023/08/08 09:52:38;;;;;;;0.40;0.30;;;;;;;33.54;31.74;95147.88;5111356;28;20561;-49
2023/08/08 09:55:11;;;;;;;2.97;0.30;;;;;;;34.94;30.61;95135.09;5111712;28;20434;-49
2023/08/08 09:57:42;;;;;;;1.23;0.40;;;;;;;35.90;29.65;95133.44;5088009;28;20434;-49
2023/08/08 10:00:15;;;;;;;0.40;0.37;;;;;;;35.84;30.17;95145.44;5115821;28;20441;-48
2023/08/08 10:02:45;;;;;;;0.70;0.40;;;;;;;35.29;32.13;95144.53;5116335;28;20458;-49
2023/08/08 10:05:15;;;;;;;0.40;0.30;;;;;;;34.97;33.69;95150.00;5113947;28;20446;-49
2023/08/08 10:07:44;;;;;;;3.30;0.40;;;;;;;34.36;34.10;95147.03;5113694;28;20462;-48
2023/08/08 10:10:15;;;;;;;0.50;0.30;;;;;;;32.75;35.55;95148.78;5113556;28;20442;-47
2023/08/08 10:12:43;;;;;;;0.40;0.30;;;;;;;31.30;38.40;95159.50;5113682;28;20577;-49
2023/08/08 10:15:12;;;;;;;0.40;0.30;;;;;;;31.26;39.10;95163.44;5113639;28;20439;-49
2023/08/08 10:17:41;;;;;;;0.43;0.30;;;;;;;30.14;40.21;95174.72;5113994;28;20474;-50
2023/08/08 10:20:11;;;;;;;0.60;0.60;;;;;;;29.67;41.32;95175.25;5114201;28;20439;-49
2023/08/08 10:22:44;;;;;;;0.67;0.40;;;;;;;30.49;41.14;95168.31;5115029;28;20443;-48
2023/08/08 10:25:20;;;;;;;0.93;0.87;;;;;;;29.66;41.88;95097.19;5115313;28;20431;-49
2023/08/08 10:27:49;;;;;;;0.50;0.37;;;;;;;29.84;41.76;95174.44;5115437;28;20438;-49
2023/08/08 10:30:18;;;;;;;0.40;0.40;;;;;;;29.63;41.53;95151.81;5114596;28;20499;-48
2023/08/08 10:32:47;;;;;;;0.50;0.50;;;;;;;29.54;41.13;95114.81;5115138;28;20502;-48
2023/08/08 10:35:16;;;;;;;0.67;0.67;;;;;;;30.05;41.12;95171.63;5115869;28;20524;-47
2023/08/08 10:37:54;;;;;;;0.70;0.70;;;;;;;31.09;40.90;95173.38;5114942;28;20441;-48
2023/08/08 10:40:24;;;;;;;0.40;0.40;;;;;;;32.13;39.31;95171.19;5115046;28;20499;-48
2023/08/08 10:42:53;;;;;;;1.10;0.70;;;;;;;30.55;39.38;95157.72;5114337;28;20522;-48
2023/08/08 10:45:21;;;;;;;0.60;0.50;;;;;;;30.68;39.16;95169.75;5114920;28;21028;-48
2023/08/08 10:47:49;;;;;;;0.40;0.40;;;;;;;30.28;39.34;95157.47;5115033;28;20462;-49
2023/08/08 10:50:24;;;;;;;0.50;0.40;;;;;;;31.35;39.62;95170.00;5114925;28;20442;-48
2023/08/08 10:52:55;;;;;;;0.50;0.50;;;;;;;31.13;37.40;95162.38;5090563;28;20471;-48
2023/08/08 10:55:26;;;;;;;0.43;0.30;;;;;;;30.75;37.76;95159.53;5114800;28;21011;-49
2023/08/08 10:57:56;;;;;;;0.50;0.40;;;;;;;31.76;37.01;95163.75;5115331;28;20441;-49
2023/08/08 11:00:27;;;;;;;0.83;0.83;;;;;;;32.81;36.42;95150.66;5114770;28;20434;-48
2023/08/08 11:02:56;;;;;;;0.30;0.30;;;;;;;32.99;35.27;95153.88;5108966;28;20459;-49
2023/08/08 11:05:26;;;;;;;0.50;0.30;;;;;;;32.22;33.91;95155.00;5112954;28;20430;-55
2023/08/08 11:07:55;;;;;;;0.80;0.40;;;;;;;32.44;33.73;95137.06;5114073;28;20851;-58
2023/08/08 11:10:30;;;;;;;0.80;0.50;;;;;;;32.76;33.95;95142.09;5113847;28;20442;-57
2023/08/08 11:13:01;;;;;;;1.80;0.80;;;;;;;32.82;32.84;95126.69;5114241;28;20816;-57
2023/08/08 11:15:30;;;;;;;0.40;0.30;;;;;;;32.19;33.30;95148.38;5114842;28;20514;-57
2023/08/08 11:18:01;;;;;;;0.40;0.30;;;;;;;33.18;33.80;95141.44;5114014;28;20974;-57
2023/08/08 11:20:31;;;;;;;3.63;0.40;;;;;;;33.52;31.54;95125.50;5114115;28;20434;-58
2023/08/08 11:23:00;;;;;;;0.50;0.40;;;;;;;33.45;31.14;95136.63;5114209;28;21011;-56
2023/08/08 11:25:31;;;;;;;0.40;0.40;;;;;;;32.27;32.52;95144.34;5114497;28;20462;-57
2023/08/08 11:27:59;;;;;;;0.90;0.53;;;;;;;33.07;30.97;95127.88;5114046;28;20487;-56
2023/08/08 11:30:30;;;;;;;0.40;0.30;;;;;;;33.17;31.52;95139.88;5114318;28;20443;-55
2023/08/08 11:32:59;;;;;;;0.70;0.50;;;;;;;33.46;30.77;95132.69;5113571;28;20471;-56
2023/08/08 11:35:30;;;;;;;0.30;0.20;;;;;;;34.03;31.64;95071.88;5114483;28;20534;-56
2023/08/08 11:38:00;;;;;;;0.40;0.30;;;;;;;34.47;29.32;95117.31;5113596;28;20439;-57
2023/08/08 11:40:31;;;;;;;0.40;0.30;;;;;;;34.42;30.48;95124.13;5114045;28;20443;-56
2023/08/08 11:43:00;;;;;;;0.40;0.30;;;;;;;34.93;29.65;95122.56;5114149;28;20443;-56